Accueil
METAR-TAF:

METAR-TAF

Aéroports :

Sussex Airport

Sussex, New Jersey, États-Unis

latitude: 41-12-01N, longitude: 074-37-23W, altitude: 128 m

Observation

Le bulletin a été fait il y a 18 minutes, à 23:53 UTC
Vent 6 kt de sud/sud-est
Température 24°C
Humidité 69%
Pression 1022 hPa
Visibilité: 16.1 km
Ciel clair

METAR: KFWN 152353Z AUTO 15006KT 10SM CLR 24/18 A3019 RMK AO2 SLP221 T02440183 10289 20244 53006

Heure: 20:11 (00:11 UTC)


TAF: absent

Observations et prévisions météorologiques de plus de 4000 aéroports (messages METAR et TAF).

Les stations disponibles sont représentées par des disques jaunes et rouges sur la carte.

Passer la souris dessus pour voir le nom de la station.

Cliquer dessus pour voir les observations et prévisions météorologiques.

Pour changer de carte: cliquez sur les boutons verts avec une croix noire pour zoomer, sur le bouton vert avec un tiret pour effectuer un zoom arrière, ou sur les flèches vertes pour les cartes adjacentes.


METAR-TAF: